Taylors, SC

2:45 AM EDT on September 21, 2014 (GMT -0400)
APRSWXNET Greenville SC US | Change Station
CLOSE
Current Station
Personal Weather Station
Location: Taylors, SC
Elevation: 898 ft
Nearby Weather Stations

Elev 898 ft 34.91 °N, 82.35 °W | Updated 40 minutes ago

Clear
Clear
58.0 °F
Feels Like 58.0 °F
N
0.0
Wind Variable Wind from North

Today
High -- | Low -- °F
--% Chance of Precip.
Yesterday
High -- | Low -- °F
Precip. -- in
7:16 AM 7:27 PM
Waning Crescent, 8% visible
Pressure 30.01 in
Visibility 10.0 miles
Clouds Clear
Dew Point 57.0 °F
Humidity 96%
Rainfall -999.00 in
Snow Depth Not available.
UV 0 out of 12
Pollen 7.20 out of 12
Air Quality Not available.
Flu Activity Not available.
METAR KGMU 210553Z AUTO 00000KT 10SM CLR 17/15 A3003 RMK AO2 SLP161 T01720150 10228 20172 58012

More Conditions Fewer Conditions

Pressure 30.01 in
Visibility 10.0 miles
Clouds Clear
Dew Point 57.0 °F
Humidity 96%
Rainfall -999.00 in
Snow Depth Not available.
UV 0 out of 12
Pollen 7.20 out of 12
Air Quality Not available.
Flu Activity Not available.
METAR KGMU 210553Z AUTO 00000KT 10SM CLR 17/15 A3003 RMK AO2 SLP161 T01720150 10228 20172 58012

More Conditions Fewer Conditions

10-Day Weather Forecast

Almanac

Astronomy

Sep. 21, 2014 Rise Set
Actual Time 7:16 AM EDT 7:27 PM EDT
Civil Twilight 6:51 AM EDT 7:52 PM EDT
Nautical Twilight 6:21 AM EDT 8:22 PM EDT
Astronomical Twilight 5:52 AM EDT 8:52 PM EDT
Moon 4:53 AM EDT 5:59 PM EDT
Length of Visible Light 13h 01m
Length of Day
12h 10m
Tomorrow will be 2m 10s shorter.
Waning Crescent, 8% of the Moon is Illuminated
Today
Waning Crescent
Sep 24
New
Oct 1
First Quarter
Oct 8
Full
Oct 15
Last Quarter

Today's Extremes

State Highs State Lows

Community

WunderPhotos

Upload Photos

1,755,098 photos uploaded!

Nearby

Air Quality

  Air Quality AQ Index Pollutant
Yesterday Good
OZONE
Yesterday Good
PM2.5
Sunday Good
OZONE

Snow Depth

Station Depth Elevation
No new snow has been reported.

Earthquake Activity

City Distance Mag. Time & Date
New Ellenton, South Carolina 107 miles 2.6 4:38 PM EDT
2014-09-19
Minimum magnitude displayed is 2.5.

Coastal Water Temperatures

Place Temperature
No Stations Reporting

Nearby Weather Stations